Time;durP1;ratioP1;P1;durP2;ratioP2;P2;SDS_P1;SDS_P2;PMS_P1;PMS_P2;Temp;Humidity;BMP_temperature;BMP_pressure;BME280_temperature;BME280_humidity;BME280_pressure;Samples;Min_cycle;Max_cycle;Signal;HPM_P1;HPM_P2
2023/07/13 00:00:26;;;;;;;12.53;2.10;;;18.20;99.90;;;;;;7276502;19;20722;-77
2023/07/13 00:02:53;;;;;;;10.17;2.00;;;18.20;99.90;;;;;;7283756;19;20189;-77
2023/07/13 00:05:22;;;;;;;8.57;1.97;;;18.20;99.90;;;;;;7283738;19;20193;-77
2023/07/13 00:07:50;;;;;;;14.13;2.50;;;18.10;99.90;;;;;;7283589;19;20504;-77
2023/07/13 00:10:16;;;;;;;11.10;2.00;;;18.00;99.90;;;;;;7283140;19;20185;-76
2023/07/13 00:12:42;;;;;;;9.50;1.80;;;17.90;99.90;;;;;;7284025;19;20195;-77
2023/07/13 00:15:16;;;;;;;10.17;1.83;;;17.80;99.90;;;;;;7283148;19;20177;-77
2023/07/13 00:17:44;;;;;;;14.37;2.20;;;17.80;99.90;;;;;;7284023;19;20181;-77
2023/07/13 00:20:11;;;;;;;14.23;2.13;;;17.80;99.90;;;;;;7284850;19;20185;-77
2023/07/13 00:22:37;;;;;;;9.30;2.00;;;17.80;99.90;;;;;;7283895;19;20184;-77
2023/07/13 00:25:03;;;;;;;11.63;2.27;;;17.70;99.90;;;;;;7306156;19;20213;-77
2023/07/13 00:27:31;;;;;;;11.00;2.57;;;17.60;99.90;;;;;;7283770;19;20648;-77
2023/07/13 00:29:58;;;;;;;13.37;2.37;;;17.60;99.90;;;;;;7283444;19;20184;-77
2023/07/13 00:32:27;;;;;;;9.97;2.00;;;17.60;99.90;;;;;;7284593;19;20186;-77
2023/07/13 00:34:53;;;;;;;11.33;2.13;;;17.70;99.90;;;;;;7282832;19;20185;-77
2023/07/13 00:37:19;;;;;;;13.00;2.40;;;17.70;99.90;;;;;;7284018;19;20206;-77
2023/07/13 00:39:44;;;;;;;9.37;2.07;;;17.70;99.90;;;;;;7282405;19;20180;-77
2023/07/13 00:42:11;;;;;;;9.53;2.17;;;17.60;99.90;;;;;;7282913;19;20350;-77
2023/07/13 00:44:36;;;;;;;9.37;2.37;;;17.60;99.90;;;;;;7285937;19;20203;-77
2023/07/13 00:47:02;;;;;;;11.60;2.43;;;17.70;99.90;;;;;;7304891;19;20177;-76
2023/07/13 00:49:30;;;;;;;11.27;2.17;;;17.60;99.90;;;;;;7282149;19;20272;-77
2023/07/13 00:52:04;;;;;;;13.27;2.80;;;17.60;99.90;;;;;;7283192;19;20207;-77
2023/07/13 00:54:39;;;;;;;14.70;2.70;;;17.70;99.90;;;;;;7283360;19;20272;-77
2023/07/13 00:57:09;;;;;;;10.50;2.20;;;17.60;99.90;;;;;;7280391;19;20695;-77
2023/07/13 00:59:37;;;;;;;12.60;2.17;;;17.50;99.90;;;;;;7305096;19;20199;-77
2023/07/13 01:02:03;;;;;;;8.23;2.30;;;17.50;99.90;;;;;;7281453;19;20605;-77
2023/07/13 01:04:30;;;;;;;11.73;2.30;;;17.40;99.90;;;;;;7282159;19;20188;-77
2023/07/13 01:06:56;;;;;;;10.03;2.30;;;17.40;99.90;;;;;;7281531;19;20667;-77
2023/07/13 01:09:22;;;;;;;7.80;1.90;;;17.40;99.90;;;;;;7281755;19;20193;-77
2023/07/13 01:11:49;;;;;;;9.07;2.10;;;17.30;99.90;;;;;;7282247;19;20213;-77
2023/07/13 01:14:16;;;;;;;13.40;2.27;;;17.20;99.90;;;;;;7281949;19;20280;-77
2023/07/13 01:16:44;;;;;;;10.17;2.13;;;17.20;99.90;;;;;;7282461;19;20245;-77
2023/07/13 01:19:35;;;;;;;10.80;2.53;;;17.20;99.90;;;;;;7281490;19;20212;-77
2023/07/13 01:22:08;;;;;;;12.07;2.30;;;17.30;99.90;;;;;;7281110;19;20599;-76
2023/07/13 01:24:36;;;;;;;16.53;2.40;;;17.20;99.90;;;;;;7282466;19;20184;-75
2023/07/13 01:27:02;;;;;;;17.53;2.67;;;17.10;99.90;;;;;;7282761;19;20219;-76
2023/07/13 01:29:30;;;;;;;11.97;2.27;;;17.10;99.90;;;;;;7281266;19;20191;-77
2023/07/13 01:31:56;;;;;;;11.70;2.90;;;17.10;99.90;;;;;;7282205;19;20197;-77
2023/07/13 01:34:25;;;;;;;12.10;2.53;;;17.10;99.90;;;;;;7280343;19;20820;-77
2023/07/13 01:36:53;;;;;;;10.47;2.80;;;17.20;99.90;;;;;;7280404;19;20210;-77
2023/07/13 01:39:22;;;;;;;11.70;2.53;;;17.20;99.90;;;;;;7282026;19;20657;-76
2023/07/13 01:41:48;;;;;;;13.83;2.90;;;17.20;99.90;;;;;;7282433;19;20216;-77
2023/07/13 01:44:13;;;;;;;14.80;2.90;;;17.20;99.90;;;;;;7280072;19;20185;-76
2023/07/13 01:46:39;;;;;;;11.60;2.63;;;17.20;99.90;;;;;;7281862;19;20188;-76
2023/07/13 01:49:05;;;;;;;11.83;2.63;;;17.20;99.90;;;;;;7297602;19;20193;-76
2023/07/13 01:51:31;;;;;;;17.00;2.80;;;17.10;99.90;;;;;;7292542;19;20651;-76
2023/07/13 01:53:56;;;;;;;15.23;2.90;;;17.10;99.90;;;;;;7280419;19;20920;-77
2023/07/13 01:56:23;;;;;;;14.90;2.50;;;17.00;99.90;;;;;;7281074;19;20199;-77
2023/07/13 01:58:49;;;;;;;11.43;2.53;;;17.00;99.90;;;;;;7282282;19;20523;-77
2023/07/13 02:01:15;;;;;;;10.97;2.67;;;16.90;99.90;;;;;;7280844;19;20200;-77
2023/07/13 02:03:41;;;;;;;14.13;3.00;;;16.90;99.90;;;;;;7281078;19;20197;-77
2023/07/13 02:06:07;;;;;;;12.60;2.50;;;16.90;99.90;;;;;;7280534;19;20210;-77
2023/07/13 02:08:33;;;;;;;15.70;2.57;;;16.80;99.90;;;;;;7301393;19;20612;-76
2023/07/13 02:10:59;;;;;;;15.60;2.93;;;16.90;99.90;;;;;;7281254;19;20184;-76
2023/07/13 02:13:25;;;;;;;11.57;2.27;;;16.90;99.90;;;;;;7280935;19;20217;-77
2023/07/13 02:15:51;;;;;;;10.50;2.47;;;16.90;99.90;;;;;;7281119;19;20193;-77
2023/07/13 02:18:17;;;;;;;10.17;2.43;;;16.90;99.90;;;;;;7279928;19;20655;-76
2023/07/13 02:20:44;;;;;;;13.50;3.17;;;16.80;99.90;;;;;;7281020;19;20307;-76
2023/07/13 02:23:10;;;;;;;15.47;3.27;;;16.80;99.90;;;;;;7278166;19;20196;-76
2023/07/13 02:25:36;;;;;;;16.73;3.07;;;16.80;99.90;;;;;;7286680;19;20189;-77
2023/07/13 02:28:03;;;;;;;12.67;2.90;;;16.80;99.90;;;;;;7302036;19;20192;-77
2023/07/13 02:30:30;;;;;;;14.97;3.00;;;16.80;99.90;;;;;;7280572;19;20189;-77
2023/07/13 02:32:57;;;;;;;15.80;2.70;;;16.70;99.90;;;;;;7280497;19;20178;-77
2023/07/13 02:35:23;;;;;;;14.57;2.90;;;16.70;99.90;;;;;;7277223;19;20442;-77
2023/07/13 02:37:49;;;;;;;13.67;3.20;;;16.70;99.90;;;;;;7279280;19;20315;-77
2023/07/13 02:40:14;;;;;;;10.07;2.77;;;16.70;99.90;;;;;;7278874;19;20196;-77
2023/07/13 02:42:40;;;;;;;11.10;2.97;;;16.80;99.90;;;;;;7279324;19;20186;-77
2023/07/13 02:45:08;;;;;;;10.30;2.90;;;16.70;99.90;;;;;;7286637;19;20590;-77
2023/07/13 02:47:35;;;;;;;12.73;2.90;;;16.70;99.90;;;;;;7299935;19;20192;-76
2023/07/13 02:50:01;;;;;;;12.40;2.43;;;16.60;99.90;;;;;;7278864;19;20246;-76
2023/07/13 02:52:27;;;;;;;13.93;3.00;;;16.50;99.90;;;;;;7277745;19;20186;-76
2023/07/13 02:54:52;;;;;;;14.53;2.57;;;16.50;99.90;;;;;;7279228;19;20212;-76
2023/07/13 02:57:18;;;;;;;16.00;2.67;;;16.40;99.90;;;;;;7279768;19;20370;-76
2023/07/13 02:59:44;;;;;;;13.57;3.10;;;16.40;99.90;;;;;;7279037;19;20195;-76
2023/07/13 03:02:10;;;;;;;13.93;3.50;;;16.40;99.90;;;;;;7276830;19;20211;-76
2023/07/13 03:04:37;;;;;;;13.10;2.80;;;16.40;99.90;;;;;;7289380;19;20192;-77
2023/07/13 03:07:04;;;;;;;14.17;2.87;;;16.40;99.90;;;;;;7300044;19;20247;-75
2023/07/13 03:09:35;;;;;;;14.70;3.10;;;16.40;99.90;;;;;;7278714;19;20194;-76
2023/07/13 03:12:02;;;;;;;23.33;3.20;;;16.50;99.90;;;;;;7279501;19;20185;-81
2023/07/13 03:14:30;;;;;;;12.93;2.90;;;16.40;99.90;;;;;;7280362;19;20191;-82
2023/07/13 03:16:57;;;;;;;17.83;3.07;;;16.50;99.90;;;;;;7279091;19;20188;-81
2023/07/13 03:19:26;;;;;;;14.00;3.17;;;16.50;99.90;;;;;;7279762;19;20549;-81
2023/07/13 03:21:52;;;;;;;14.20;3.00;;;16.40;99.90;;;;;;7278404;19;20180;-82
2023/07/13 03:24:18;;;;;;;19.70;3.53;;;16.40;99.90;;;;;;7279256;19;20627;-82
2023/07/13 03:26:43;;;;;;;13.93;3.60;;;16.40;99.90;;;;;;7280438;19;20189;-82
2023/07/13 03:29:10;;;;;;;12.57;2.87;;;16.40;99.90;;;;;;7279311;19;20292;-80
2023/07/13 03:31:36;;;;;;;13.67;3.37;;;16.30;99.90;;;;;;7295368;19;20646;-81
2023/07/13 03:34:03;;;;;;;18.90;3.53;;;16.40;99.90;;;;;;7301259;19;20202;-81
2023/07/13 03:36:32;;;;;;;15.43;3.10;;;16.40;99.90;;;;;;7284124;19;20231;-81
2023/07/13 03:39:02;;;;;;;18.23;3.10;;;16.30;99.90;;;;;;7287176;19;20187;-81
2023/07/13 03:41:42;;;;;;;15.10;3.40;;;16.20;99.90;;;;;;7184375;19;2004497;-81
2023/07/13 03:44:08;;;;;;;17.70;3.40;;;16.30;99.90;;;;;;7285892;19;20197;-80
2023/07/13 03:46:33;;;;;;;14.53;3.63;;;16.30;99.90;;;;;;7307921;19;20184;-81
2023/07/13 03:49:00;;;;;;;16.93;3.20;;;16.30;99.90;;;;;;7285950;19;20184;-82
2023/07/13 03:51:25;;;;;;;16.60;3.43;;;16.30;99.90;;;;;;7286330;19;20206;-82
2023/07/13 03:53:51;;;;;;;19.53;3.77;;;16.30;99.90;;;;;;7286276;19;20192;-81
2023/07/13 03:56:19;;;;;;;17.13;3.50;;;16.40;99.90;;;;;;7286561;19;20189;-81
2023/07/13 03:58:48;;;;;;;15.13;3.50;;;16.40;99.90;;;;;;7285755;19;20189;-80
2023/07/13 04:01:20;;;;;;;15.83;3.67;;;16.40;99.90;;;;;;7284882;19;20192;-81
2023/07/13 04:03:47;;;;;;;16.20;3.70;;;16.40;99.90;;;;;;7286352;19;20332;-81
2023/07/13 04:06:23;;;;;;;14.57;3.30;;;16.50;99.90;;;;;;7286757;19;20648;-82
2023/07/13 04:08:52;;;;;;;17.30;3.43;;;16.60;99.90;;;;;;7285470;19;20192;-82
2023/07/13 04:11:19;;;;;;;17.50;3.63;;;16.80;99.90;;;;;;7284922;19;20181;-80
2023/07/13 04:13:46;;;;;;;16.10;3.63;;;16.80;99.90;;;;;;7284957;19;20189;-82
2023/07/13 04:16:13;;;;;;;15.50;3.10;;;16.90;99.90;;;;;;7282545;19;20231;-82
2023/07/13 04:18:39;;;;;;;18.37;3.40;;;17.00;99.90;;;;;;7283886;19;20205;-77
2023/07/13 04:21:05;;;;;;;17.17;3.10;;;17.00;99.90;;;;;;7306271;19;20188;-78
2023/07/13 04:23:30;;;;;;;15.23;3.63;;;17.00;99.90;;;;;;7284421;19;20217;-76
2023/07/13 04:25:56;;;;;;;16.63;3.20;;;17.00;99.90;;;;;;7284458;19;20186;-77
2023/07/13 04:28:23;;;;;;;14.20;3.10;;;17.00;99.90;;;;;;7283012;19;20263;-77
2023/07/13 04:30:50;;;;;;;15.33;3.07;;;17.10;99.90;;;;;;7284858;19;20197;-77
2023/07/13 04:33:22;;;;;;;17.60;2.93;;;17.10;99.90;;;;;;7283807;19;20216;-77
2023/07/13 04:35:56;;;;;;;17.77;3.47;;;17.20;99.90;;;;;;7283136;19;20200;-77
2023/07/13 04:38:27;;;;;;;12.23;2.87;;;17.10;99.90;;;;;;7283269;19;20185;-77
2023/07/13 04:40:56;;;;;;;18.07;3.43;;;17.30;99.90;;;;;;7283390;19;20207;-77
2023/07/13 04:43:22;;;;;;;15.63;3.13;;;17.30;99.90;;;;;;7284040;19;20193;-77
2023/07/13 04:45:48;;;;;;;17.17;3.43;;;17.40;99.90;;;;;;7284259;19;20196;-76
2023/07/13 04:48:13;;;;;;;14.87;4.07;;;17.40;99.90;;;;;;7281680;19;20210;-77
2023/07/13 04:50:39;;;;;;;18.20;3.20;;;17.50;99.90;;;;;;7283768;19;20580;-77
2023/07/13 04:53:05;;;;;;;17.30;3.10;;;17.50;99.90;;;;;;7304366;19;20598;-77
2023/07/13 04:55:31;;;;;;;11.97;2.90;;;17.70;99.90;;;;;;7283843;19;20189;-77
2023/07/13 04:58:00;;;;;;;14.57;3.17;;;17.80;99.90;;;;;;7283780;19;20235;-77
2023/07/13 05:00:27;;;;;;;17.07;3.27;;;17.80;99.90;;;;;;7283593;19;20197;-77
2023/07/13 05:02:57;;;;;;;18.33;3.17;;;17.80;99.90;;;;;;7283686;19;20192;-77
2023/07/13 05:05:24;;;;;;;14.30;3.40;;;17.90;99.90;;;;;;7281984;19;20199;-77
2023/07/13 05:07:50;;;;;;;18.37;3.70;;;18.00;99.90;;;;;;7282864;19;20266;-76
2023/07/13 05:10:16;;;;;;;13.40;2.60;;;18.10;99.90;;;;;;7282824;19;20767;-77
2023/07/13 05:12:42;;;;;;;15.00;2.93;;;18.30;99.90;;;;;;7283115;19;20199;-77
2023/07/13 05:15:08;;;;;;;17.00;3.07;;;18.40;99.90;;;;;;7282844;19;20184;-77
2023/07/13 05:17:33;;;;;;;16.73;3.30;;;18.50;99.90;;;;;;7304223;19;20548;-77
2023/07/13 05:19:59;;;;;;;18.97;2.80;;;18.60;99.90;;;;;;7282628;19;20190;-77
2023/07/13 05:22:25;;;;;;;19.07;3.03;;;19.00;99.90;;;;;;7282060;19;26079;-76
2023/07/13 05:24:50;;;;;;;14.07;2.70;;;19.30;99.90;;;;;;7281921;19;20219;-76
2023/07/13 05:27:16;;;;;;;16.10;2.93;;;19.60;99.90;;;;;;7281682;19;20248;-76
2023/07/13 05:29:42;;;;;;;15.13;3.00;;;19.50;99.90;;;;;;7281740;19;20201;-77
2023/07/13 05:32:07;;;;;;;17.40;3.03;;;19.30;99.90;;;;;;7281491;19;20689;-76
2023/07/13 05:34:33;;;;;;;17.63;3.00;;;19.20;99.90;;;;;;7300020;19;20248;-77
2023/07/13 05:36:59;;;;;;;13.43;2.87;;;19.20;99.90;;;;;;7280872;19;20192;-77
2023/07/13 05:39:26;;;;;;;14.83;2.70;;;19.20;99.90;;;;;;7278965;19;20215;-76
2023/07/13 05:41:51;;;;;;;15.40;2.77;;;19.20;99.90;;;;;;7280245;19;20209;-77
2023/07/13 05:44:18;;;;;;;14.37;3.03;;;19.20;99.90;;;;;;7280787;19;20181;-76
2023/07/13 05:46:44;;;;;;;10.93;2.70;;;19.30;99.90;;;;;;7281793;19;20188;-76
2023/07/13 05:49:10;;;;;;;17.00;2.97;;;19.30;99.90;;;;;;7280805;19;20192;-76
2023/07/13 05:51:36;;;;;;;16.87;2.90;;;19.20;99.90;;;;;;7293258;19;20668;-77
2023/07/13 05:54:03;;;;;;;15.20;3.13;;;19.30;99.90;;;;;;7301321;19;20181;-77
2023/07/13 05:56:29;;;;;;;15.20;2.73;;;19.10;99.90;;;;;;7280507;19;20189;-76
2023/07/13 05:58:54;;;;;;;18.33;3.47;;;19.00;99.90;;;;;;7280057;19;20216;-76
2023/07/13 06:01:22;;;;;;;15.33;2.93;;;19.10;99.90;;;;;;7281170;19;20640;-77
2023/07/13 06:03:48;;;;;;;17.17;3.13;;;19.20;99.90;;;;;;7281364;19;20536;-76
2023/07/13 06:06:15;;;;;;;16.33;3.00;;;19.20;99.90;;;;;;7280890;19;20200;-77
2023/07/13 06:08:40;;;;;;;12.20;2.77;;;19.30;99.90;;;;;;7281364;19;20635;-77
2023/07/13 06:11:10;;;;;;;15.23;3.10;;;19.40;99.90;;;;;;7292752;19;20200;-77
2023/07/13 06:13:35;;;;;;;15.07;3.03;;;19.50;99.90;;;;;;7301520;19;20187;-77
2023/07/13 06:16:04;;;;;;;18.63;3.60;;;19.60;99.90;;;;;;7291102;19;20251;-77
2023/07/13 06:18:31;;;;;;;16.13;3.33;;;19.90;99.90;;;;;;7281362;19;20671;-77
2023/07/13 06:20:57;;;;;;;17.33;3.10;;;20.00;99.90;;;;;;7280328;19;20640;-77
2023/07/13 06:23:23;;;;;;;13.23;2.67;;;20.20;99.90;;;;;;7281040;19;20361;-77
2023/07/13 06:25:48;;;;;;;13.73;2.90;;;20.40;99.90;;;;;;7281599;19;20651;-77
2023/07/13 06:28:14;;;;;;;18.97;3.37;;;20.50;99.90;;;;;;7280004;19;20185;-77
2023/07/13 06:30:40;;;;;;;14.83;2.90;;;20.50;99.90;;;;;;7280876;19;20201;-77
2023/07/13 06:33:06;;;;;;;18.77;2.97;;;20.40;99.90;;;;;;7298898;19;20222;-77
2023/07/13 06:35:31;;;;;;;17.83;3.13;;;20.60;99.90;;;;;;7293113;19;20633;-76
2023/07/13 06:37:57;;;;;;;10.97;3.07;;;20.70;99.90;;;;;;7282268;19;20208;-83
2023/07/13 06:40:23;;;;;;;13.30;2.83;;;20.80;99.90;;;;;;7282486;19;20196;-82
2023/07/13 06:42:48;;;;;;;14.27;3.23;;;20.90;99.90;;;;;;7281842;19;20193;-82
2023/07/13 06:45:14;;;;;;;14.17;2.80;;;21.00;99.90;;;;;;7283685;19;20191;-82
2023/07/13 06:47:40;;;;;;;13.23;2.90;;;21.00;99.90;;;;;;7281057;19;20212;-82
2023/07/13 06:50:06;;;;;;;13.23;2.60;;;21.00;99.90;;;;;;7301550;19;20212;-79
2023/07/13 06:52:31;;;;;;;16.07;3.20;;;21.10;99.90;;;;;;7295244;19;20689;-82
2023/07/13 06:54:57;;;;;;;17.93;2.80;;;20.90;99.90;;;;;;7281428;19;20193;-82
2023/07/13 06:57:23;;;;;;;17.03;2.83;;;21.10;99.90;;;;;;7282344;19;20185;-82
2023/07/13 06:59:48;;;;;;;14.40;3.00;;;21.10;99.90;;;;;;7281395;19;20260;-82
2023/07/13 07:02:14;;;;;;;14.13;2.80;;;21.10;99.90;;;;;;7280720;19;20288;-83
2023/07/13 07:04:40;;;;;;;18.07;3.13;;;21.10;99.90;;;;;;7281691;19;20181;-81
2023/07/13 07:07:05;;;;;;;13.53;2.80;;;20.80;99.90;;;;;;7300296;19;20761;-78
2023/07/13 07:09:31;;;;;;;15.27;3.13;;;20.70;99.90;;;;;;7288482;19;20181;-82
2023/07/13 07:11:57;;;;;;;15.07;3.10;;;20.80;99.90;;;;;;7280797;19;20940;-82
2023/07/13 07:14:23;;;;;;;13.67;2.30;;;20.80;99.90;;;;;;7281357;19;20659;-81
2023/07/13 07:16:49;;;;;;;17.30;3.17;;;20.90;99.90;;;;;;7280028;19;20746;-81
2023/07/13 07:19:15;;;;;;;10.47;2.97;;;21.20;99.90;;;;;;7280350;19;20189;-82
2023/07/13 07:21:41;;;;;;;14.00;2.93;;;21.50;99.90;;;;;;7279205;19;20185;-81
2023/07/13 07:24:07;;;;;;;11.43;2.80;;;21.40;99.90;;;;;;7285670;19;20197;-82
2023/07/13 07:26:33;;;;;;;10.60;2.77;;;21.40;99.90;;;;;;7302749;19;20294;-82
2023/07/13 07:28:59;;;;;;;14.50;2.63;;;21.40;99.90;;;;;;7280423;19;20185;-82
2023/07/13 07:31:25;;;;;;;15.60;2.73;;;21.50;99.90;;;;;;7281133;19;20252;-82
2023/07/13 07:33:50;;;;;;;15.60;3.00;;;21.80;99.90;;;;;;7281754;19;20213;-82
2023/07/13 07:36:16;;;;;;;14.30;2.57;;;22.20;99.90;;;;;;7280602;19;20185;-82
2023/07/13 07:38:43;;;;;;;10.77;2.43;;;22.70;99.90;;;;;;7283180;19;20189;-82
2023/07/13 07:41:09;;;;;;;12.77;2.70;;;23.20;99.90;;;;;;7288007;19;20185;-80
2023/07/13 07:43:35;;;;;;;11.67;2.63;;;23.60;99.90;;;;;;7328262;19;20253;-81
2023/07/13 07:46:02;;;;;;;11.43;2.07;;;24.30;99.90;;;;;;7307322;19;20189;-81
2023/07/13 07:48:27;;;;;;;12.87;2.70;;;25.60;99.90;;;;;;7309798;19;20189;-81
2023/07/13 07:50:53;;;;;;;14.70;2.60;;;25.70;99.90;;;;;;7305604;19;20185;-81
2023/07/13 07:53:19;;;;;;;12.30;2.83;;;26.70;99.90;;;;;;7289674;19;20189;-82
2023/07/13 07:55:45;;;;;;;14.82;2.53;;;27.40;99.90;;;;;;7283742;19;20300;-81
2023/07/13 07:58:11;;;;;;;12.25;2.60;;;27.70;99.90;;;;;;7284922;19;20189;-83
2023/07/13 08:00:36;;;;;;;12.73;2.35;;;27.80;99.90;;;;;;7295937;19;20655;-81
2023/07/13 08:03:02;;;;;;;11.23;2.30;;;27.80;99.90;;;;;;7299521;19;20206;-82
2023/07/13 08:05:28;;;;;;;9.88;2.17;;;28.20;99.90;;;;;;7282129;19;20281;-82
2023/07/13 08:07:54;;;;;;;13.35;2.10;;;29.20;99.90;;;;;;7287596;19;20197;-82
2023/07/13 08:10:20;;;;;;;15.32;2.63;;;28.90;99.90;;;;;;7291661;19;20193;-81
2023/07/13 08:12:45;;;;;;;13.73;2.53;;;28.50;99.90;;;;;;7291153;19;20209;-81
2023/07/13 08:15:14;;;;;;;10.32;2.28;;;28.30;99.90;;;;;;7292180;19;20209;-81
2023/07/13 08:17:40;;;;;;;15.10;2.47;;;28.00;99.90;;;;;;7293231;19;20206;-81
2023/07/13 08:20:08;;;;;;;12.85;2.45;;;28.40;99.90;;;;;;7306370;19;20189;-80
2023/07/13 08:22:35;;;;;;;12.85;2.35;;;29.00;99.90;;;;;;7306125;19;20189;-81
2023/07/13 08:25:01;;;;;;;12.15;2.40;;;29.40;99.90;;;;;;7286266;19;20193;-82
2023/07/13 08:27:28;;;;;;;9.93;2.30;;;31.00;99.90;;;;;;7287116;19;20691;-81
2023/07/13 08:29:54;;;;;;;13.40;2.83;;;30.00;99.90;;;;;;7285466;19;20197;-83
2023/07/13 08:32:21;;;;;;;16.33;2.67;;;29.20;99.90;;;;;;7285256;19;20256;-81
2023/07/13 08:34:47;;;;;;;14.57;2.90;;;28.60;99.90;;;;;;7286415;19;20284;-81
2023/07/13 08:37:13;;;;;;;11.20;2.25;;;28.50;99.90;;;;;;7285687;19;20233;-81
2023/07/13 08:39:39;;;;;;;13.50;2.45;;;28.50;99.90;;;;;;7285771;19;20184;-80
2023/07/13 08:42:18;;;;;;;13.27;2.22;;;28.50;99.90;;;;;;7307792;19;20684;-82
2023/07/13 08:44:52;;;;;;;9.68;2.10;;;29.40;99.90;;;;;;7184037;19;2005077;-82
2023/07/13 08:47:22;;;;;;;14.48;2.60;;;29.50;99.90;;;;;;7286973;19;20203;-81
2023/07/13 08:49:48;;;;;;;10.23;2.00;;;29.80;99.90;;;;;;7285147;19;20532;-81
2023/07/13 08:52:33;;;;;;;12.68;2.25;;;30.40;99.90;;;;;;7286807;19;20204;-82
2023/07/13 08:55:06;;;;;;;11.85;2.20;;;29.90;99.90;;;;;;7286114;19;20656;-82
2023/07/13 08:57:33;;;;;;;11.02;2.55;;;30.10;99.90;;;;;;7285905;19;20189;-81
2023/07/13 08:59:59;;;;;;;12.98;2.47;;;29.80;99.90;;;;;;7286440;19;20189;-82
2023/07/13 09:02:33;;;;;;;9.23;2.00;;;30.20;99.90;;;;;;7284840;19;20197;-82
2023/07/13 09:05:16;;;;;;;10.32;2.50;;;30.60;99.90;;;;;;7285049;19;20196;-82
2023/07/13 09:07:50;;;;;;;11.00;2.28;;;29.70;99.90;;;;;;7182561;19;2006373;-81
2023/07/13 09:10:43;;;;;;;11.13;2.65;;;28.90;99.90;;;;;;7285351;19;20199;-81
2023/07/13 09:13:15;;;;;;;12.30;2.58;;;28.50;99.90;;;;;;7264162;19;20679;-81
2023/07/13 09:15:45;;;;;;;11.10;2.17;;;29.40;99.90;;;;;;7285330;19;20196;-81
2023/07/13 09:18:26;;;;;;;10.02;2.15;;;31.70;99.90;;;;;;7284146;19;20205;-82
2023/07/13 09:21:14;;;;;;;11.20;2.30;;;32.30;99.90;;;;;;7285174;19;20723;-82
2023/07/13 09:23:40;;;;;;;7.60;1.70;;;32.70;99.90;;;;;;7262902;19;20275;-83
2023/07/13 09:26:28;;;;;;;8.70;2.00;;;33.70;99.90;;;;;;7305644;19;20204;-78
2023/07/13 09:28:59;;;;;;;10.52;2.10;;;34.50;96.20;;;;;;7282639;19;20548;-82
2023/07/13 09:31:34;;;;;;;9.88;2.15;;;34.20;94.90;;;;;;7283353;19;20192;-82
2023/07/13 09:34:00;;;;;;;7.97;1.77;;;33.40;94.50;;;;;;7282176;19;20205;-82
2023/07/13 09:36:34;;;;;;;9.50;2.15;;;34.50;93.60;;;;;;7282215;19;21457;-82
2023/07/13 09:39:16;;;;;;;10.13;2.40;;;34.10;92.50;;;;;;7281987;19;20184;-82
2023/07/13 09:41:51;;;;;;;7.38;2.05;;;33.40;92.20;;;;;;7181058;19;2004649;-82
2023/07/13 09:44:28;;;;;;;10.82;1.90;;;34.60;92.00;;;;;;7282847;19;20188;-82
2023/07/13 09:46:55;;;;;;;8.57;2.25;;;33.70;92.10;;;;;;7283450;19;20192;-82
2023/07/13 09:49:33;;;;;;;7.90;1.90;;;32.40;92.40;;;;;;7282211;19;20202;-83
2023/07/13 09:52:01;;;;;;;9.15;2.03;;;31.70;93.30;;;;;;7283272;19;20216;-82
2023/07/13 09:54:26;;;;;;;8.77;1.98;;;31.90;93.40;;;;;;7281257;19;20206;-83
2023/07/13 09:56:56;;;;;;;7.95;1.88;;;32.00;93.70;;;;;;7282296;19;20213;-82
2023/07/13 09:59:24;;;;;;;7.90;1.58;;;31.50;93.00;;;;;;7283367;19;20193;-82
2023/07/13 10:01:50;;;;;;;8.35;1.90;;;32.40;93.90;;;;;;7282207;19;20213;-83
2023/07/13 10:04:20;;;;;;;8.30;1.90;;;33.40;91.90;;;;;;7282930;19;20628;-83
2023/07/13 10:06:47;;;;;;;6.53;1.85;;;32.60;93.00;;;;;;7282204;19;20224;-82
2023/07/13 10:09:17;;;;;;;9.88;2.10;;;31.50;92.70;;;;;;7280706;19;20253;-82
2023/07/13 10:11:44;;;;;;;9.00;1.83;;;31.00;94.40;;;;;;7283993;19;20216;-82
2023/07/13 10:14:14;;;;;;;10.90;2.10;;;32.20;93.40;;;;;;7281764;19;20252;-81
2023/07/13 10:16:43;;;;;;;6.72;1.65;;;33.20;91.00;;;;;;7282655;19;20693;-82
2023/07/13 10:19:25;;;;;;;9.40;2.20;;;32.90;91.00;;;;;;7280953;19;20699;-81
2023/07/13 10:21:59;;;;;;;9.65;2.08;;;33.10;90.60;;;;;;7282677;19;20567;-82
2023/07/13 10:24:32;;;;;;;7.32;1.88;;;32.40;91.10;;;;;;7281381;19;20197;-82
2023/07/13 10:27:27;;;;;;;9.75;2.53;;;31.90;90.80;;;;;;7281771;19;21312;-83
2023/07/13 10:30:00;;;;;;;6.70;1.90;;;32.20;90.90;;;;;;7180663;19;2005029;-82
2023/07/13 10:32:26;;;;;;;7.80;2.00;;;33.00;90.40;;;;;;7279884;19;20416;-82
2023/07/13 10:34:55;;;;;;;8.25;1.65;;;33.60;88.40;;;;;;7282077;19;20908;-81
2023/07/13 10:37:26;;;;;;;8.48;1.83;;;33.20;88.50;;;;;;7280981;19;20184;-82
2023/07/13 10:39:56;;;;;;;9.25;1.73;;;33.50;88.30;;;;;;7280526;19;20185;-81
2023/07/13 10:42:28;;;;;;;6.10;1.75;;;33.60;90.10;;;;;;7281793;19;20184;-82
2023/07/13 10:44:54;;;;;;;6.53;1.73;;;33.60;87.10;;;;;;7278496;19;20189;-82
2023/07/13 10:47:20;;;;;;;9.10;1.90;;;34.00;85.60;;;;;;7281890;19;20222;-81
2023/07/13 10:49:54;;;;;;;7.03;1.83;;;33.60;86.30;;;;;;7281875;19;21500;-82
2023/07/13 10:52:50;;;;;;;12.30;1.85;;;32.70;86.40;;;;;;7281947;19;20751;-81
2023/07/13 10:55:37;;;;;;;8.93;2.10;;;33.10;87.40;;;;;;7179012;19;2004655;-82
2023/07/13 10:58:22;;;;;;;7.68;1.60;;;31.80;86.30;;;;;;7282111;19;20193;-83
2023/07/13 11:01:10;;;;;;;9.80;2.50;;;31.80;89.70;;;;;;7177986;19;2004829;-82
2023/07/13 11:03:59;;;;;;;6.35;1.88;;;32.10;89.60;;;;;;7281639;19;20611;-81
2023/07/13 11:06:30;;;;;;;9.82;2.15;;;32.60;90.20;;;;;;7178044;19;2004727;-83
2023/07/13 11:08:58;;;;;;;9.18;1.77;;;32.50;87.20;;;;;;7281459;19;20200;-82
2023/07/13 11:11:26;;;;;;;7.47;2.08;;;32.90;86.00;;;;;;7280845;19;20200;-83
2023/07/13 11:13:52;;;;;;;10.77;2.30;;;33.10;86.40;;;;;;7281604;19;20185;-83
2023/07/13 11:16:18;;;;;;;10.50;2.10;;;33.50;87.20;;;;;;7281332;19;20281;-82
2023/07/13 11:18:49;;;;;;;9.18;1.83;;;32.70;83.10;;;;;;7279441;19;20767;-81
2023/07/13 11:21:26;;;;;;;10.05;1.80;;;32.00;85.60;;;;;;7280686;19;20205;-82
2023/07/13 11:23:54;;;;;;;4.53;1.45;;;31.20;85.70;;;;;;7279759;19;20666;-83
2023/07/13 11:26:41;;;;;;;9.63;1.60;;;31.60;87.00;;;;;;7280730;19;20188;-82
2023/07/13 11:29:36;;;;;;;7.03;1.35;;;32.20;88.00;;;;;;7275020;19;20215;-81
2023/07/13 11:32:26;;;;;;;6.47;1.35;;;31.50;88.40;;;;;;7280751;19;20189;-83
2023/07/13 11:34:54;;;;;;;7.88;1.95;;;31.40;88.50;;;;;;7176597;19;2004577;-83
2023/07/13 11:37:21;;;;;;;5.47;1.60;;;30.50;90.00;;;;;;7280045;19;20189;-83
2023/07/13 11:39:50;;;;;;;4.97;1.67;;;30.20;90.30;;;;;;7279389;19;20738;-81
2023/07/13 11:42:20;;;;;;;6.45;1.75;;;29.50;90.40;;;;;;7279773;19;20548;-81
2023/07/13 11:44:48;;;;;;;6.22;1.65;;;28.70;91.10;;;;;;7280785;19;20192;-82
2023/07/13 11:47:25;;;;;;;7.25;1.50;;;28.20;91.10;;;;;;7278527;19;20652;-81
2023/07/13 11:49:59;;;;;;;6.93;1.70;;;27.80;91.80;;;;;;7280215;19;20842;-82
2023/07/13 11:52:36;;;;;;;5.15;1.60;;;27.30;92.40;;;;;;7279564;19;20623;-81
2023/07/13 11:55:14;;;;;;;5.40;1.45;;;26.70;94.30;;;;;;7280204;19;20184;-81
2023/07/13 11:57:49;;;;;;;7.20;1.67;;;26.70;95.60;;;;;;7264919;19;20192;-81
2023/07/13 12:00:21;;;;;;;6.97;1.70;;;26.80;95.00;;;;;;7284760;19;20604;-81
2023/07/13 12:02:51;;;;;;;7.70;1.50;;;27.10;95.80;;;;;;7285587;19;20197;-81
2023/07/13 12:05:20;;;;;;;9.20;1.60;;;27.10;94.10;;;;;;7285821;19;20205;-81
2023/07/13 12:07:46;;;;;;;6.05;1.40;;;27.10;94.80;;;;;;7287510;19;20696;-82
2023/07/13 12:10:23;;;;;;;5.80;1.20;;;27.50;95.40;;;;;;7286355;19;20205;-82
2023/07/13 12:13:00;;;;;;;6.20;1.27;;;27.80;94.90;;;;;;7287035;19;20193;-81
2023/07/13 12:15:43;;;;;;;6.63;1.20;;;27.80;93.30;;;;;;7286104;19;20245;-82
2023/07/13 12:18:18;;;;;;;4.85;1.35;;;27.70;93.00;;;;;;7265372;19;20185;-81
2023/07/13 12:20:45;;;;;;;3.97;1.15;;;27.90;94.90;;;;;;7285864;19;20710;-82
2023/07/13 12:23:20;;;;;;;5.32;1.15;;;27.90;93.20;;;;;;7285814;19;20202;-81
2023/07/13 12:25:46;;;;;;;4.43;1.30;;;28.00;94.10;;;;;;7285575;19;20192;-83
2023/07/13 12:28:23;;;;;;;4.40;1.13;;;27.80;92.40;;;;;;7282385;19;20587;-82
2023/07/13 12:30:49;;;;;;;6.10;1.25;;;27.40;92.70;;;;;;7286105;19;20191;-81
2023/07/13 12:33:17;;;;;;;8.50;1.30;;;27.10;93.70;;;;;;7284647;19;20184;-82
2023/07/13 12:35:48;;;;;;;7.15;1.08;;;26.90;93.50;;;;;;7284765;19;20177;-82
2023/07/13 12:38:16;;;;;;;6.18;1.50;;;26.50;96.10;;;;;;7285641;19;20181;-81
2023/07/13 12:40:42;;;;;;;5.18;1.50;;;25.90;99.90;;;;;;7283572;19;20194;-82
2023/07/13 12:43:12;;;;;;;7.85;1.73;;;24.90;99.90;;;;;;7289115;19;20209;-81
2023/07/13 12:45:38;;;;;;;10.70;2.00;;;24.20;99.90;;;;;;7286646;19;20185;-81